Hanzhong, China
Current Conditions -  °F | °C
As of 12:00 AM on Monday 22 Dec 2014 (Local Time) from ZLXY Reporting Station
Clear Clear  
Wind Chill: 19°   Ceiling: Unl
Heat Index: 19°   Visibility: 4mi
Dew Point:   Wind: 0mph
Humidity: 63%   Direction: NA
Pressure: 30.42"   Gusts: NA
Location:  33.13°N, 107.03°E
Report Text: ZLXY 211600Z 00000MPS 6000 NSC M07/M13 Q1030 NOSIG
Loading
Personal Weather Stations






























Interactive Weather Map New forecast layout! Learn more

10-Day Weather Forecast

Advertisements
Track Severe Weather on mobile